Flight Track Log - Related Links

Times and Time Zones

All times are in EDT time to prevent confusion due to time zone crossing. See the UCA596 flight status page for this flight to view local times or setup timezone preferences in your user account.

Time Position Orientation Groundspeed Altitude Reporting Facility
EDT Latitude Longitude Course Direction KTS MPH feet Rate Location/Type
Sun 02:05:17 PM 38.9500 -77.5167 345° North 142 163 1,700  Level Potomac TRACON
Sun 02:06:17 PM 39.0000 -77.5333 345° North 177 204 2,900 1,339 Climbing Potomac TRACON
Sun 02:07:18 PM 39.0333 -77.5667 322° Northwest 177 204 4,400 1,488 Climbing Potomac TRACON
Sun 02:08:18 PM 39.0833 -77.5833 345° North 178 205 5,900 1,359 Climbing Potomac TRACON
Sun 02:10:19 PM 39.1694 -77.6236 340° North 176 203 8,500 1,253 Climbing Washington Center
Sun 02:11:20 PM 39.2197 -77.6064 15° North 171 197 9,700 1,160 Climbing Washington Center
Sun 02:12:18 PM 39.2700 -77.5861 17° North 179 206 10,800 1,322 Climbing Washington Center
Sun 02:13:18 PM 39.3203 -77.5689 15° North 184 212 12,300 1,289 Climbing Washington Center
Sun 02:14:19 PM 39.3686 -77.5514 16° North 184 212 13,400 1,041 Climbing Washington Center
Sun 02:15:19 PM 39.4208 -77.5339 15° North 184 212 14,400 1,041 Climbing Washington Center
Sun 02:16:20 PM 39.4711 -77.5164 15° North 184 212 15,500 1,059 Climbing Washington Center
Sun 02:17:18 PM 39.5236 -77.4964 16° North 184 212 16,500 905 Climbing Washington Center
Sun 02:19:39 PM 39.6489 -77.4528 15° North 190 219 18,500 746 Climbing New York Center
Sun 02:20:39 PM 39.7094 -77.4531 360° North 190 219 19,000 250 Climbing New York Center
Sun 02:21:39 PM 39.7681 -77.4506 North 212 244 19,000  Level New York Center
Sun 02:22:39 PM 39.8389 -77.4492 North 233 268 19,000  Level New York Center
Sun 02:23:39 PM 39.9014 -77.4497 360° North 238 274 19,000  Level New York Center
Sun 02:24:39 PM 39.9786 -77.4517 359° North 238 274 19,000  Level New York Center
Sun 02:25:39 PM 40.0403 -77.4303 15° North 238 274 19,000  Level New York Center
Sun 02:26:39 PM 40.1153 -77.3942 20° North 252 290 19,000  Level New York Center
Sun 02:27:39 PM 40.1753 -77.3644 21° North 257 296 19,000  Level New York Center
Sun 02:28:39 PM 40.2503 -77.3281 20° North 257 296 19,000  Level New York Center
Sun 02:29:39 PM 40.3103 -77.2983 21° North 257 296 19,000  Level New York Center
Sun 02:30:39 PM 40.3831 -77.2617 21° North 257 296 19,000 -50 Level New York Center
Sun 02:31:39 PM 40.4431 -77.2319 21° North 257 296 18,900 -550 Descending New York Center
Sun 02:32:39 PM 40.5203 -77.1928 21° North 257 296 17,900 -950 Descending New York Center
Sun 02:33:39 PM 40.5889 -77.1608 19° North 273 314 17,000 -450 Descending New York Center
Sun 02:34:39 PM 40.6575 -77.1233 23° Northeast 273 314 17,000  Level New York Center
Sun 02:35:39 PM 40.7303 -77.0864 21° North 273 314 17,000  Level New York Center
Sun 02:36:40 PM 40.7989 -77.0542 20° North 260 299 17,000  Level New York Center
Sun 02:37:39 PM 40.8631 -77.0217 21° North 255 293 17,000  Level New York Center
Sun 02:38:39 PM 40.9294 -76.9867 22° Northeast 250 288 17,000  Level New York Center
Sun 02:39:39 PM 40.9914 -76.9564 20° North 250 288 17,000  Level New York Center
Sun 02:40:39 PM 41.0558 -76.9211 22° Northeast 250 288 17,000 -100 Level New York Center
Sun 02:41:39 PM 41.1222 -76.8886 20° North 245 282 16,800 -600 Descending New York Center
Sun 02:42:39 PM 41.1883 -76.8558 20° North 245 282 15,800 -1,000 Descending New York Center
Sun 02:43:39 PM 41.2614 -76.8156 23° Northeast 256 295 14,800 -1,000 Descending New York Center
Sun 02:44:39 PM 41.3339 -76.7778 21° North 266 306 13,800 -950 Descending New York Center
Sun 02:45:39 PM 41.4011 -76.7286 29° Northeast 271 312 12,900 -450 Descending New York Center
Sun 02:46:39 PM 41.4639 -76.6786 31° Northeast 271 312 12,900  Level New York Center
Sun 02:47:39 PM 41.5247 -76.6314 30° Northeast 257 296 12,900  Level New York Center
Sun 02:48:39 PM 41.5789 -76.5889 30° Northeast 252 290 12,900 -50 Level New York Center
Sun 02:49:39 PM 41.6394 -76.5414 30° Northeast 252 290 12,800 -650 Descending New York Center
Sun 02:50:39 PM 41.7089 -76.4864 31° Northeast 259 298 11,600 -1,000 Descending New York Center
Sun 02:51:39 PM 41.7606 -76.4492 28° Northeast 259 298 10,800 -950 Descending New York Center
Sun 02:52:39 PM 41.8283 -76.3797 37° Northeast 259 298 9,700 -1,350 Descending New York Center
Sun 02:53:39 PM 41.8856 -76.3178 39° Northeast 264 304 8,100 -1,500 Descending New York Center
Sun 02:54:39 PM 41.9381 -76.2636 37° Northeast 252 290 6,700 -1,400 Descending New York Center
Sun 02:55:39 PM 41.9903 -76.2092 38° Northeast 221 254 5,300 -1,200 Descending New York Center
Sun 02:56:39 PM 42.0364 -76.1572 40° Northeast 210 242 4,300 -650 Descending New York Center
Sun 02:57:39 PM 42.0758 -76.1183 36° Northeast 210 242 4,000 -400 Descending New York Center
Sun 02:58:39 PM 42.1114 -76.0628 49° Northeast 198 228 3,500 -450 Descending New York Center
Sun 02:59:39 PM 42.1328 -76.0028 64° Northeast 185 213 3,100 -500 Descending New York Center
Sun 03:00:39 PM 42.1539 -75.9542 60° Northeast 169 194 2,500 -450 Descending New York Center
Sun 03:01:39 PM 42.1900 -75.9347 22° Northeast 158 182 2,200 3,250 Descending New York Center
Sun 03:02:39 PM 42.2164 -75.9031 42° Northeast 158 182 9,000 3,400 Climbing New York Center
Sun 03:03:39 PM 42.2447 -75.8689 42° Northeast 158 182 9,000  Level New York Center
Sun 03:04:39 PM 42.2711 -75.8372 42° Northeast 158 182 9,000  Level New York Center
Sun 03:06:00 PM 42.2213 -75.9280 233° Southwest  Level FlightAware Approximate

Login

Don't have an account? Register now (free) for customized features, flight alerts, and more!